sensor_id;sensor_type;location;lat;lon;timestamp;temperature;humidity
28845;DHT22;15976;47.938;7.758;2024-02-21T00:01:03;8.30;72.60
28845;DHT22;15976;47.938;7.758;2024-02-21T00:03:31;8.30;72.70
28845;DHT22;15976;47.938;7.758;2024-02-21T00:05:58;8.30;72.50
28845;DHT22;15976;47.938;7.758;2024-02-21T00:08:25;8.30;72.60
28845;DHT22;15976;47.938;7.758;2024-02-21T00:10:52;8.30;72.70
28845;DHT22;15976;47.938;7.758;2024-02-21T00:13:20;8.30;72.80
28845;DHT22;15976;47.938;7.758;2024-02-21T00:15:47;8.30;73.00
28845;DHT22;15976;47.938;7.758;2024-02-21T00:18:14;8.30;73.00
28845;DHT22;15976;47.938;7.758;2024-02-21T00:20:41;8.30;73.10
28845;DHT22;15976;47.938;7.758;2024-02-21T00:23:08;8.30;73.10
28845;DHT22;15976;47.938;7.758;2024-02-21T00:25:35;8.30;73.10
28845;DHT22;15976;47.938;7.758;2024-02-21T00:28:02;8.30;73.10
28845;DHT22;15976;47.938;7.758;2024-02-21T00:30:30;8.30;73.10
28845;DHT22;15976;47.938;7.758;2024-02-21T00:32:57;8.30;73.20
28845;DHT22;15976;47.938;7.758;2024-02-21T00:35:25;8.30;73.20
28845;DHT22;15976;47.938;7.758;2024-02-21T00:37:52;8.30;73.20
28845;DHT22;15976;47.938;7.758;2024-02-21T00:40:19;8.30;73.20
28845;DHT22;15976;47.938;7.758;2024-02-21T00:42:48;8.30;73.20
28845;DHT22;15976;47.938;7.758;2024-02-21T00:45:16;8.30;73.40
28845;DHT22;15976;47.938;7.758;2024-02-21T00:47:43;8.30;73.50
28845;DHT22;15976;47.938;7.758;2024-02-21T00:50:10;8.30;73.60
28845;DHT22;15976;47.938;7.758;2024-02-21T00:52:37;8.30;73.60
28845;DHT22;15976;47.938;7.758;2024-02-21T00:55:05;8.30;73.60
28845;DHT22;15976;47.938;7.758;2024-02-21T00:57:32;8.30;73.80
28845;DHT22;15976;47.938;7.758;2024-02-21T00:59:59;8.30;73.90
28845;DHT22;15976;47.938;7.758;2024-02-21T01:02:26;8.30;73.90
28845;DHT22;15976;47.938;7.758;2024-02-21T01:04:54;8.30;73.90
28845;DHT22;15976;47.938;7.758;2024-02-21T01:07:21;8.30;73.80
28845;DHT22;15976;47.938;7.758;2024-02-21T01:09:48;8.30;73.70
28845;DHT22;15976;47.938;7.758;2024-02-21T01:12:15;8.30;73.80
28845;DHT22;15976;47.938;7.758;2024-02-21T01:14:42;8.30;73.80
28845;DHT22;15976;47.938;7.758;2024-02-21T01:17:09;8.30;74.00
28845;DHT22;15976;47.938;7.758;2024-02-21T01:19:36;8.30;74.10
28845;DHT22;15976;47.938;7.758;2024-02-21T01:22:04;8.30;74.20
28845;DHT22;15976;47.938;7.758;2024-02-21T01:24:31;8.30;74.30
28845;DHT22;15976;47.938;7.758;2024-02-21T01:26:58;8.30;74.30
28845;DHT22;15976;47.938;7.758;2024-02-21T01:29:25;8.30;74.30
28845;DHT22;15976;47.938;7.758;2024-02-21T01:31:52;8.30;74.40
28845;DHT22;15976;47.938;7.758;2024-02-21T01:34:19;8.30;74.40
28845;DHT22;15976;47.938;7.758;2024-02-21T01:36:46;8.30;74.60
28845;DHT22;15976;47.938;7.758;2024-02-21T01:39:13;8.30;74.70
28845;DHT22;15976;47.938;7.758;2024-02-21T01:41:40;8.30;74.80
28845;DHT22;15976;47.938;7.758;2024-02-21T01:44:07;8.30;74.80
28845;DHT22;15976;47.938;7.758;2024-02-21T01:46:35;8.30;74.90
28845;DHT22;15976;47.938;7.758;2024-02-21T01:49:02;8.30;74.80
28845;DHT22;15976;47.938;7.758;2024-02-21T01:51:29;8.30;74.80
28845;DHT22;15976;47.938;7.758;2024-02-21T01:53:58;8.30;74.90
28845;DHT22;15976;47.938;7.758;2024-02-21T01:56:25;8.30;74.60
28845;DHT22;15976;47.938;7.758;2024-02-21T01:58:52;8.30;74.40
28845;DHT22;15976;47.938;7.758;2024-02-21T02:01:19;8.40;74.20
28845;DHT22;15976;47.938;7.758;2024-02-21T02:03:48;8.50;73.60
28845;DHT22;15976;47.938;7.758;2024-02-21T02:06:16;8.50;72.90
28845;DHT22;15976;47.938;7.758;2024-02-21T02:08:44;8.50;72.60
28845;DHT22;15976;47.938;7.758;2024-02-21T02:11:13;8.60;72.40
28845;DHT22;15976;47.938;7.758;2024-02-21T02:13:41;8.50;72.00
28845;DHT22;15976;47.938;7.758;2024-02-21T02:16:08;8.60;71.70
28845;DHT22;15976;47.938;7.758;2024-02-21T02:18:35;8.60;71.30
28845;DHT22;15976;47.938;7.758;2024-02-21T02:21:05;8.70;71.40
28845;DHT22;15976;47.938;7.758;2024-02-21T02:23:37;8.70;71.40
28845;DHT22;15976;47.938;7.758;2024-02-21T02:26:04;8.70;71.30
28845;DHT22;15976;47.938;7.758;2024-02-21T02:28:34;8.70;71.30
28845;DHT22;15976;47.938;7.758;2024-02-21T02:31:01;8.80;72.20
28845;DHT22;15976;47.938;7.758;2024-02-21T02:33:28;8.70;71.90
28845;DHT22;15976;47.938;7.758;2024-02-21T02:35:55;8.70;72.00
28845;DHT22;15976;47.938;7.758;2024-02-21T02:38:22;8.70;72.20
28845;DHT22;15976;47.938;7.758;2024-02-21T02:40:49;8.70;72.20
28845;DHT22;15976;47.938;7.758;2024-02-21T02:43:17;8.70;72.50
28845;DHT22;15976;47.938;7.758;2024-02-21T02:45:44;8.70;72.60
28845;DHT22;15976;47.938;7.758;2024-02-21T02:48:10;8.70;72.60
28845;DHT22;15976;47.938;7.758;2024-02-21T02:50:38;8.60;72.60
28845;DHT22;15976;47.938;7.758;2024-02-21T02:53:05;8.60;72.60
28845;DHT22;15976;47.938;7.758;2024-02-21T02:55:32;8.60;72.70
28845;DHT22;15976;47.938;7.758;2024-02-21T02:57:59;8.50;72.90
28845;DHT22;15976;47.938;7.758;2024-02-21T03:00:27;8.50;73.10
28845;DHT22;15976;47.938;7.758;2024-02-21T03:02:54;8.50;73.20
28845;DHT22;15976;47.938;7.758;2024-02-21T03:05:21;8.50;73.30
28845;DHT22;15976;47.938;7.758;2024-02-21T03:07:49;8.40;73.30
28845;DHT22;15976;47.938;7.758;2024-02-21T03:10:17;8.40;73.50
28845;DHT22;15976;47.938;7.758;2024-02-21T03:12:45;8.30;73.70
28845;DHT22;15976;47.938;7.758;2024-02-21T03:15:13;8.30;73.90
28845;DHT22;15976;47.938;7.758;2024-02-21T03:17:41;8.20;74.00
28845;DHT22;15976;47.938;7.758;2024-02-21T03:20:09;8.20;74.20
28845;DHT22;15976;47.938;7.758;2024-02-21T03:22:39;8.20;74.30
28845;DHT22;15976;47.938;7.758;2024-02-21T03:25:08;8.20;74.40
28845;DHT22;15976;47.938;7.758;2024-02-21T03:27:35;8.20;74.60
28845;DHT22;15976;47.938;7.758;2024-02-21T03:30:03;8.20;75.10
28845;DHT22;15976;47.938;7.758;2024-02-21T03:32:31;8.20;74.80
28845;DHT22;15976;47.938;7.758;2024-02-21T03:34:58;8.10;74.90
28845;DHT22;15976;47.938;7.758;2024-02-21T03:37:26;8.10;74.90
28845;DHT22;15976;47.938;7.758;2024-02-21T03:39:53;8.00;75.10
28845;DHT22;15976;47.938;7.758;2024-02-21T03:42:20;8.00;75.30
28845;DHT22;15976;47.938;7.758;2024-02-21T03:44:47;8.00;75.40
28845;DHT22;15976;47.938;7.758;2024-02-21T03:47:14;8.00;75.40
28845;DHT22;15976;47.938;7.758;2024-02-21T03:49:41;7.90;75.40
28845;DHT22;15976;47.938;7.758;2024-02-21T03:52:09;7.90;75.70
28845;DHT22;15976;47.938;7.758;2024-02-21T03:54:37;7.80;75.70
28845;DHT22;15976;47.938;7.758;2024-02-21T03:57:05;7.80;75.70
28845;DHT22;15976;47.938;7.758;2024-02-21T03:59:33;7.80;75.70
28845;DHT22;15976;47.938;7.758;2024-02-21T04:02:00;7.70;75.80
28845;DHT22;15976;47.938;7.758;2024-02-21T04:04:28;7.70;75.90
28845;DHT22;15976;47.938;7.758;2024-02-21T04:06:55;7.70;75.90
28845;DHT22;15976;47.938;7.758;2024-02-21T04:09:22;7.60;76.00
28845;DHT22;15976;47.938;7.758;2024-02-21T04:11:49;7.60;76.10
28845;DHT22;15976;47.938;7.758;2024-02-21T04:14:16;7.50;76.90
28845;DHT22;15976;47.938;7.758;2024-02-21T04:16:43;7.50;76.20
28845;DHT22;15976;47.938;7.758;2024-02-21T04:19:10;7.50;76.10
28845;DHT22;15976;47.938;7.758;2024-02-21T04:21:37;7.50;76.20
28845;DHT22;15976;47.938;7.758;2024-02-21T04:24:04;7.40;76.20
28845;DHT22;15976;47.938;7.758;2024-02-21T04:26:33;7.40;76.20
28845;DHT22;15976;47.938;7.758;2024-02-21T04:29:03;7.40;76.10
28845;DHT22;15976;47.938;7.758;2024-02-21T04:31:32;7.40;76.20
28845;DHT22;15976;47.938;7.758;2024-02-21T04:34:00;7.40;76.30
28845;DHT22;15976;47.938;7.758;2024-02-21T04:36:27;7.30;76.40
28845;DHT22;15976;47.938;7.758;2024-02-21T04:38:54;7.30;76.50
28845;DHT22;15976;47.938;7.758;2024-02-21T04:41:21;7.30;76.60
28845;DHT22;15976;47.938;7.758;2024-02-21T04:43:48;7.20;76.60
28845;DHT22;15976;47.938;7.758;2024-02-21T04:46:16;7.20;76.70
28845;DHT22;15976;47.938;7.758;2024-02-21T04:48:43;7.20;76.60
28845;DHT22;15976;47.938;7.758;2024-02-21T04:51:12;7.20;76.60
28845;DHT22;15976;47.938;7.758;2024-02-21T04:53:40;7.10;76.30
28845;DHT22;15976;47.938;7.758;2024-02-21T04:56:07;7.10;76.30
28845;DHT22;15976;47.938;7.758;2024-02-21T04:58:38;7.10;76.30
28845;DHT22;15976;47.938;7.758;2024-02-21T05:01:06;7.00;76.20
28845;DHT22;15976;47.938;7.758;2024-02-21T05:03:33;7.00;76.20
28845;DHT22;15976;47.938;7.758;2024-02-21T05:06:00;7.00;76.10
28845;DHT22;15976;47.938;7.758;2024-02-21T05:08:27;7.00;76.10
28845;DHT22;15976;47.938;7.758;2024-02-21T05:10:54;6.90;76.00
28845;DHT22;15976;47.938;7.758;2024-02-21T05:13:22;6.90;76.00
28845;DHT22;15976;47.938;7.758;2024-02-21T05:15:49;6.90;76.00
28845;DHT22;15976;47.938;7.758;2024-02-21T05:18:17;6.80;75.90
28845;DHT22;15976;47.938;7.758;2024-02-21T05:20:44;6.80;76.10
28845;DHT22;15976;47.938;7.758;2024-02-21T05:23:11;6.80;76.10
28845;DHT22;15976;47.938;7.758;2024-02-21T05:25:38;6.80;76.20
28845;DHT22;15976;47.938;7.758;2024-02-21T05:28:06;6.80;76.20
28845;DHT22;15976;47.938;7.758;2024-02-21T05:30:33;6.80;76.20
28845;DHT22;15976;47.938;7.758;2024-02-21T05:33:04;6.80;76.20
28845;DHT22;15976;47.938;7.758;2024-02-21T05:35:32;6.70;76.20
28845;DHT22;15976;47.938;7.758;2024-02-21T05:37:59;6.70;76.20
28845;DHT22;15976;47.938;7.758;2024-02-21T05:40:27;6.70;76.30
28845;DHT22;15976;47.938;7.758;2024-02-21T05:42:54;6.60;76.20
28845;DHT22;15976;47.938;7.758;2024-02-21T05:45:21;6.70;76.40
28845;DHT22;15976;47.938;7.758;2024-02-21T05:47:48;6.70;76.40
28845;DHT22;15976;47.938;7.758;2024-02-21T05:50:15;6.70;76.30
28845;DHT22;15976;47.938;7.758;2024-02-21T05:52:42;6.70;76.20
28845;DHT22;15976;47.938;7.758;2024-02-21T05:55:09;6.60;76.10
28845;DHT22;15976;47.938;7.758;2024-02-21T05:57:36;6.60;76.10
28845;DHT22;15976;47.938;7.758;2024-02-21T06:00:05;6.60;76.10
28845;DHT22;15976;47.938;7.758;2024-02-21T06:02:38;6.60;76.20
28845;DHT22;15976;47.938;7.758;2024-02-21T06:05:05;6.60;76.40
28845;DHT22;15976;47.938;7.758;2024-02-21T06:07:35;6.60;76.40
28845;DHT22;15976;47.938;7.758;2024-02-21T06:10:02;6.50;76.60
28845;DHT22;15976;47.938;7.758;2024-02-21T06:12:30;6.50;76.80
28845;DHT22;15976;47.938;7.758;2024-02-21T06:14:57;6.50;76.80
28845;DHT22;15976;47.938;7.758;2024-02-21T06:17:24;6.50;76.80
28845;DHT22;15976;47.938;7.758;2024-02-21T06:19:51;6.50;76.80
28845;DHT22;15976;47.938;7.758;2024-02-21T06:22:20;6.50;76.70
28845;DHT22;15976;47.938;7.758;2024-02-21T06:24:47;6.50;76.80
28845;DHT22;15976;47.938;7.758;2024-02-21T06:27:15;6.50;76.80
28845;DHT22;15976;47.938;7.758;2024-02-21T06:29:43;6.50;76.80
28845;DHT22;15976;47.938;7.758;2024-02-21T06:32:10;6.50;76.80
28845;DHT22;15976;47.938;7.758;2024-02-21T06:34:37;6.50;76.80
28845;DHT22;15976;47.938;7.758;2024-02-21T06:37:05;6.50;76.80
28845;DHT22;15976;47.938;7.758;2024-02-21T06:39:32;6.50;76.80
28845;DHT22;15976;47.938;7.758;2024-02-21T06:42:00;6.40;76.80
28845;DHT22;15976;47.938;7.758;2024-02-21T06:44:30;6.50;77.10
28845;DHT22;15976;47.938;7.758;2024-02-21T06:46:58;6.50;77.10
28845;DHT22;15976;47.938;7.758;2024-02-21T06:49:26;6.50;77.00
28845;DHT22;15976;47.938;7.758;2024-02-21T06:51:53;6.50;77.00
28845;DHT22;15976;47.938;7.758;2024-02-21T06:54:20;6.60;77.10
28845;DHT22;15976;47.938;7.758;2024-02-21T06:56:47;6.50;76.80
28845;DHT22;15976;47.938;7.758;2024-02-21T06:59:14;6.60;76.80
28845;DHT22;15976;47.938;7.758;2024-02-21T07:01:48;6.60;76.80
28845;DHT22;15976;47.938;7.758;2024-02-21T07:04:15;6.70;76.80
28845;DHT22;15976;47.938;7.758;2024-02-21T07:06:42;6.70;76.80
28845;DHT22;15976;47.938;7.758;2024-02-21T07:09:09;6.70;76.70
28845;DHT22;15976;47.938;7.758;2024-02-21T07:11:36;6.80;76.70
28845;DHT22;15976;47.938;7.758;2024-02-21T07:14:04;6.80;76.60
28845;DHT22;15976;47.938;7.758;2024-02-21T07:16:31;6.90;76.70
28845;DHT22;15976;47.938;7.758;2024-02-21T07:18:59;7.00;76.40
28845;DHT22;15976;47.938;7.758;2024-02-21T07:21:27;7.00;76.00
28845;DHT22;15976;47.938;7.758;2024-02-21T07:23:54;7.10;76.00
28845;DHT22;15976;47.938;7.758;2024-02-21T07:26:21;7.10;75.80
28845;DHT22;15976;47.938;7.758;2024-02-21T07:28:49;7.10;75.80
28845;DHT22;15976;47.938;7.758;2024-02-21T07:31:16;7.20;75.70
28845;DHT22;15976;47.938;7.758;2024-02-21T07:33:43;7.20;75.60
28845;DHT22;15976;47.938;7.758;2024-02-21T07:36:11;7.30;75.70
28845;DHT22;15976;47.938;7.758;2024-02-21T07:38:39;7.40;75.70
28845;DHT22;15976;47.938;7.758;2024-02-21T07:41:06;7.40;75.40
28845;DHT22;15976;47.938;7.758;2024-02-21T07:43:33;7.50;75.40
28845;DHT22;15976;47.938;7.758;2024-02-21T07:46:00;7.50;75.20
28845;DHT22;15976;47.938;7.758;2024-02-21T07:48:27;7.60;75.30
28845;DHT22;15976;47.938;7.758;2024-02-21T07:50:56;7.70;75.20
28845;DHT22;15976;47.938;7.758;2024-02-21T07:53:23;7.80;75.00
28845;DHT22;15976;47.938;7.758;2024-02-21T07:55:51;7.80;74.90
28845;DHT22;15976;47.938;7.758;2024-02-21T07:58:18;7.80;75.00
28845;DHT22;15976;47.938;7.758;2024-02-21T08:00:45;7.90;74.70
28845;DHT22;15976;47.938;7.758;2024-02-21T08:03:12;8.10;74.60
28845;DHT22;15976;47.938;7.758;2024-02-21T08:05:39;8.10;74.30
28845;DHT22;15976;47.938;7.758;2024-02-21T08:08:06;8.10;74.10
28845;DHT22;15976;47.938;7.758;2024-02-21T08:10:35;8.20;74.00
28845;DHT22;15976;47.938;7.758;2024-02-21T08:13:02;8.30;73.90
28845;DHT22;15976;47.938;7.758;2024-02-21T08:15:29;8.30;73.90
28845;DHT22;15976;47.938;7.758;2024-02-21T08:17:56;8.40;74.00
28845;DHT22;15976;47.938;7.758;2024-02-21T08:20:27;8.40;73.90
28845;DHT22;15976;47.938;7.758;2024-02-21T08:22:54;8.50;73.80
28845;DHT22;15976;47.938;7.758;2024-02-21T08:25:21;8.50;73.70
28845;DHT22;15976;47.938;7.758;2024-02-21T08:27:48;8.60;73.80
28845;DHT22;15976;47.938;7.758;2024-02-21T08:30:16;8.60;73.60
28845;DHT22;15976;47.938;7.758;2024-02-21T08:32:43;8.70;73.40
28845;DHT22;15976;47.938;7.758;2024-02-21T08:35:10;8.80;73.20
28845;DHT22;15976;47.938;7.758;2024-02-21T08:37:37;8.80;72.80
28845;DHT22;15976;47.938;7.758;2024-02-21T08:40:06;8.90;72.70
28845;DHT22;15976;47.938;7.758;2024-02-21T08:42:36;9.00;72.70
28845;DHT22;15976;47.938;7.758;2024-02-21T08:45:05;9.00;72.50
28845;DHT22;15976;47.938;7.758;2024-02-21T08:47:33;9.10;72.20
28845;DHT22;15976;47.938;7.758;2024-02-21T08:50:00;9.20;72.30
28845;DHT22;15976;47.938;7.758;2024-02-21T08:52:41;9.30;72.10
28845;DHT22;15976;47.938;7.758;2024-02-21T08:55:08;9.30;71.90
28845;DHT22;15976;47.938;7.758;2024-02-21T08:57:35;9.40;71.80
28845;DHT22;15976;47.938;7.758;2024-02-21T09:00:04;9.50;71.40
28845;DHT22;15976;47.938;7.758;2024-02-21T09:02:40;9.60;70.80
28845;DHT22;15976;47.938;7.758;2024-02-21T09:05:07;9.70;70.50
28845;DHT22;15976;47.938;7.758;2024-02-21T09:07:35;9.80;70.30
28845;DHT22;15976;47.938;7.758;2024-02-21T09:10:02;9.90;70.10
28845;DHT22;15976;47.938;7.758;2024-02-21T09:12:29;10.00;70.00
28845;DHT22;15976;47.938;7.758;2024-02-21T09:14:56;10.00;69.50
28845;DHT22;15976;47.938;7.758;2024-02-21T09:17:23;10.10;69.30
28845;DHT22;15976;47.938;7.758;2024-02-21T09:19:52;10.10;69.30
28845;DHT22;15976;47.938;7.758;2024-02-21T09:22:19;10.20;69.20
28845;DHT22;15976;47.938;7.758;2024-02-21T09:24:46;10.30;69.10
28845;DHT22;15976;47.938;7.758;2024-02-21T09:27:14;10.40;68.90
28845;DHT22;15976;47.938;7.758;2024-02-21T09:29:41;10.50;68.80
28845;DHT22;15976;47.938;7.758;2024-02-21T09:32:08;10.60;68.50
28845;DHT22;15976;47.938;7.758;2024-02-21T09:34:35;10.60;68.20
28845;DHT22;15976;47.938;7.758;2024-02-21T09:37:03;10.70;67.90
28845;DHT22;15976;47.938;7.758;2024-02-21T09:39:31;10.80;67.80
28845;DHT22;15976;47.938;7.758;2024-02-21T09:42:05;10.90;67.40
28845;DHT22;15976;47.938;7.758;2024-02-21T09:44:37;11.00;67.10
28845;DHT22;15976;47.938;7.758;2024-02-21T09:47:32;11.10;66.80
28845;DHT22;15976;47.938;7.758;2024-02-21T09:50:03;11.20;66.20
28845;DHT22;15976;47.938;7.758;2024-02-21T09:52:32;11.20;65.90
28845;DHT22;15976;47.938;7.758;2024-02-21T09:55:01;11.30;65.60
28845;DHT22;15976;47.938;7.758;2024-02-21T09:57:30;11.40;65.50
28845;DHT22;15976;47.938;7.758;2024-02-21T09:59:58;11.50;65.70
28845;DHT22;15976;47.938;7.758;2024-02-21T10:02:39;11.60;65.40
28845;DHT22;15976;47.938;7.758;2024-02-21T10:05:06;11.60;64.70
28845;DHT22;15976;47.938;7.758;2024-02-21T10:07:35;11.70;64.30
28845;DHT22;15976;47.938;7.758;2024-02-21T10:10:03;11.70;64.90
28845;DHT22;15976;47.938;7.758;2024-02-21T10:12:30;11.80;64.10
28845;DHT22;15976;47.938;7.758;2024-02-21T10:15:05;11.80;64.40
28845;DHT22;15976;47.938;7.758;2024-02-21T10:17:32;11.80;64.70
28845;DHT22;15976;47.938;7.758;2024-02-21T10:20:09;11.90;64.90
28845;DHT22;15976;47.938;7.758;2024-02-21T10:22:38;11.90;65.10
28845;DHT22;15976;47.938;7.758;2024-02-21T10:25:08;12.00;65.20
28845;DHT22;15976;47.938;7.758;2024-02-21T10:27:36;12.10;64.80
28845;DHT22;15976;47.938;7.758;2024-02-21T10:30:07;12.10;64.70
28845;DHT22;15976;47.938;7.758;2024-02-21T10:32:54;12.20;64.60
28845;DHT22;15976;47.938;7.758;2024-02-21T10:35:32;12.20;64.00
28845;DHT22;15976;47.938;7.758;2024-02-21T10:38:00;12.20;63.60
28845;DHT22;15976;47.938;7.758;2024-02-21T10:40:29;12.20;63.20
28845;DHT22;15976;47.938;7.758;2024-02-21T10:43:00;12.20;62.90
28845;DHT22;15976;47.938;7.758;2024-02-21T10:45:33;12.20;62.90
28845;DHT22;15976;47.938;7.758;2024-02-21T10:48:16;12.30;62.80
28845;DHT22;15976;47.938;7.758;2024-02-21T10:51:07;12.30;62.10
28845;DHT22;15976;47.938;7.758;2024-02-21T10:53:50;12.30;62.50
28845;DHT22;15976;47.938;7.758;2024-02-21T10:56:31;12.30;61.30
28845;DHT22;15976;47.938;7.758;2024-02-21T10:59:07;12.30;61.10
28845;DHT22;15976;47.938;7.758;2024-02-21T11:01:35;12.30;61.40
28845;DHT22;15976;47.938;7.758;2024-02-21T11:04:07;12.40;61.70
28845;DHT22;15976;47.938;7.758;2024-02-21T11:06:37;12.50;61.50
28845;DHT22;15976;47.938;7.758;2024-02-21T11:09:06;12.60;61.40
28845;DHT22;15976;47.938;7.758;2024-02-21T11:14:27;12.90;60.30
28845;DHT22;15976;47.938;7.758;2024-02-21T11:16:55;13.00;60.00
28845;DHT22;15976;47.938;7.758;2024-02-21T11:19:26;13.20;60.00
28845;DHT22;15976;47.938;7.758;2024-02-21T11:21:54;13.30;59.90
28845;DHT22;15976;47.938;7.758;2024-02-21T11:24:32;13.50;59.90
28845;DHT22;15976;47.938;7.758;2024-02-21T11:27:12;13.60;59.80
28845;DHT22;15976;47.938;7.758;2024-02-21T11:29:46;13.70;59.60
28845;DHT22;15976;47.938;7.758;2024-02-21T11:32:15;13.70;59.50
28845;DHT22;15976;47.938;7.758;2024-02-21T11:35:03;13.80;59.30
28845;DHT22;15976;47.938;7.758;2024-02-21T11:37:36;13.90;58.90
28845;DHT22;15976;47.938;7.758;2024-02-21T11:40:07;14.00;58.70
28845;DHT22;15976;47.938;7.758;2024-02-21T11:42:38;14.10;56.70
28845;DHT22;15976;47.938;7.758;2024-02-21T11:45:06;14.20;54.70
28845;DHT22;15976;47.938;7.758;2024-02-21T11:47:36;14.10;51.60
28845;DHT22;15976;47.938;7.758;2024-02-21T11:50:10;14.10;50.30
28845;DHT22;15976;47.938;7.758;2024-02-21T11:52:38;14.00;49.70
28845;DHT22;15976;47.938;7.758;2024-02-21T11:55:06;14.00;49.60
28845;DHT22;15976;47.938;7.758;2024-02-21T11:57:37;14.00;49.40
28845;DHT22;15976;47.938;7.758;2024-02-21T12:00:18;14.10;49.20
28845;DHT22;15976;47.938;7.758;2024-02-21T12:02:49;14.20;49.50
28845;DHT22;15976;47.938;7.758;2024-02-21T12:05:19;14.30;49.20
28845;DHT22;15976;47.938;7.758;2024-02-21T12:07:46;14.30;48.50
28845;DHT22;15976;47.938;7.758;2024-02-21T12:10:13;14.40;48.30
28845;DHT22;15976;47.938;7.758;2024-02-21T12:12:43;14.40;47.90
28845;DHT22;15976;47.938;7.758;2024-02-21T12:15:10;14.40;47.90
28845;DHT22;15976;47.938;7.758;2024-02-21T12:17:39;14.40;47.00
28845;DHT22;15976;47.938;7.758;2024-02-21T12:20:07;14.50;47.50
28845;DHT22;15976;47.938;7.758;2024-02-21T12:22:37;14.60;47.60
28845;DHT22;15976;47.938;7.758;2024-02-21T12:25:16;14.70;47.10
28845;DHT22;15976;47.938;7.758;2024-02-21T12:27:48;14.80;46.10
28845;DHT22;15976;47.938;7.758;2024-02-21T12:30:16;14.70;45.50
28845;DHT22;15976;47.938;7.758;2024-02-21T12:32:43;14.60;45.30
28845;DHT22;15976;47.938;7.758;2024-02-21T12:35:10;14.60;45.60
28845;DHT22;15976;47.938;7.758;2024-02-21T12:37:37;14.60;44.80
28845;DHT22;15976;47.938;7.758;2024-02-21T12:40:08;14.50;44.90
28845;DHT22;15976;47.938;7.758;2024-02-21T12:42:35;14.60;45.60
28845;DHT22;15976;47.938;7.758;2024-02-21T12:45:03;14.60;45.50
28845;DHT22;15976;47.938;7.758;2024-02-21T12:47:30;14.80;45.80
28845;DHT22;15976;47.938;7.758;2024-02-21T12:49:57;14.80;45.00
28845;DHT22;15976;47.938;7.758;2024-02-21T12:52:25;14.70;45.50
28845;DHT22;15976;47.938;7.758;2024-02-21T12:54:52;14.80;45.50
28845;DHT22;15976;47.938;7.758;2024-02-21T12:57:21;14.80;44.40
28845;DHT22;15976;47.938;7.758;2024-02-21T12:59:50;14.80;44.70
28845;DHT22;15976;47.938;7.758;2024-02-21T13:02:18;14.90;44.90
28845;DHT22;15976;47.938;7.758;2024-02-21T13:04:46;14.90;45.00
28845;DHT22;15976;47.938;7.758;2024-02-21T13:07:14;15.00;45.10
28845;DHT22;15976;47.938;7.758;2024-02-21T13:09:41;15.00;44.70
28845;DHT22;15976;47.938;7.758;2024-02-21T13:12:08;15.00;45.50
28845;DHT22;15976;47.938;7.758;2024-02-21T13:14:35;15.10;45.50
28845;DHT22;15976;47.938;7.758;2024-02-21T13:17:04;15.10;45.40
28845;DHT22;15976;47.938;7.758;2024-02-21T13:19:32;15.10;45.70
28845;DHT22;15976;47.938;7.758;2024-02-21T13:21:59;15.00;45.90
28845;DHT22;15976;47.938;7.758;2024-02-21T13:24:26;15.00;46.10
28845;DHT22;15976;47.938;7.758;2024-02-21T13:26:53;15.00;46.20
28845;DHT22;15976;47.938;7.758;2024-02-21T13:29:20;14.90;46.50
28845;DHT22;15976;47.938;7.758;2024-02-21T13:31:47;14.90;46.70
28845;DHT22;15976;47.938;7.758;2024-02-21T13:34:17;14.80;47.30
28845;DHT22;15976;47.938;7.758;2024-02-21T13:36:46;14.80;48.00
28845;DHT22;15976;47.938;7.758;2024-02-21T13:39:13;14.80;48.00
28845;DHT22;15976;47.938;7.758;2024-02-21T13:41:43;14.80;48.40
28845;DHT22;15976;47.938;7.758;2024-02-21T13:44:10;14.80;48.60
28845;DHT22;15976;47.938;7.758;2024-02-21T13:46:39;14.70;48.30
28845;DHT22;15976;47.938;7.758;2024-02-21T13:49:06;14.60;48.70
28845;DHT22;15976;47.938;7.758;2024-02-21T13:51:34;14.60;49.10
28845;DHT22;15976;47.938;7.758;2024-02-21T13:54:04;14.60;49.10
28845;DHT22;15976;47.938;7.758;2024-02-21T13:56:32;14.60;49.60
28845;DHT22;15976;47.938;7.758;2024-02-21T13:58:59;14.70;49.80
28845;DHT22;15976;47.938;7.758;2024-02-21T14:01:29;14.60;49.90
28845;DHT22;15976;47.938;7.758;2024-02-21T14:04:01;14.60;50.10
28845;DHT22;15976;47.938;7.758;2024-02-21T14:06:28;14.60;50.10
28845;DHT22;15976;47.938;7.758;2024-02-21T14:08:56;14.50;50.40
28845;DHT22;15976;47.938;7.758;2024-02-21T14:11:23;14.50;50.90
28845;DHT22;15976;47.938;7.758;2024-02-21T14:13:51;14.50;50.90
28845;DHT22;15976;47.938;7.758;2024-02-21T14:16:18;14.50;50.90
28845;DHT22;15976;47.938;7.758;2024-02-21T14:18:45;14.60;50.90
28845;DHT22;15976;47.938;7.758;2024-02-21T14:21:13;14.60;50.80
28845;DHT22;15976;47.938;7.758;2024-02-21T14:23:40;14.70;51.00
28845;DHT22;15976;47.938;7.758;2024-02-21T14:26:07;14.80;50.90
28845;DHT22;15976;47.938;7.758;2024-02-21T14:28:34;14.90;51.00
28845;DHT22;15976;47.938;7.758;2024-02-21T14:31:05;14.90;51.00
28845;DHT22;15976;47.938;7.758;2024-02-21T14:33:35;14.80;51.30
28845;DHT22;15976;47.938;7.758;2024-02-21T14:36:03;14.80;51.60
28845;DHT22;15976;47.938;7.758;2024-02-21T14:38:30;14.70;51.80
28845;DHT22;15976;47.938;7.758;2024-02-21T14:40:57;14.70;52.00
28845;DHT22;15976;47.938;7.758;2024-02-21T14:43:24;14.60;51.90
28845;DHT22;15976;47.938;7.758;2024-02-21T14:45:56;14.60;52.00
28845;DHT22;15976;47.938;7.758;2024-02-21T14:48:23;14.50;52.10
28845;DHT22;15976;47.938;7.758;2024-02-21T14:50:50;14.50;52.10
28845;DHT22;15976;47.938;7.758;2024-02-21T14:53:18;14.50;52.10
28845;DHT22;15976;47.938;7.758;2024-02-21T14:55:45;14.50;52.10
28845;DHT22;15976;47.938;7.758;2024-02-21T14:58:12;14.50;52.40
28845;DHT22;15976;47.938;7.758;2024-02-21T15:00:39;14.50;52.50
28845;DHT22;15976;47.938;7.758;2024-02-21T15:03:09;14.50;52.60
28845;DHT22;15976;47.938;7.758;2024-02-21T15:05:37;14.60;52.80
28845;DHT22;15976;47.938;7.758;2024-02-21T15:08:06;14.50;52.80
28845;DHT22;15976;47.938;7.758;2024-02-21T15:10:34;14.50;53.00
28845;DHT22;15976;47.938;7.758;2024-02-21T15:13:02;14.40;53.00
28845;DHT22;15976;47.938;7.758;2024-02-21T15:15:29;14.30;53.00
28845;DHT22;15976;47.938;7.758;2024-02-21T15:17:59;14.20;52.80
28845;DHT22;15976;47.938;7.758;2024-02-21T15:20:27;14.20;52.90
28845;DHT22;15976;47.938;7.758;2024-02-21T15:22:54;14.10;53.30
28845;DHT22;15976;47.938;7.758;2024-02-21T15:25:22;14.00;53.80
28845;DHT22;15976;47.938;7.758;2024-02-21T15:27:49;13.90;54.10
28845;DHT22;15976;47.938;7.758;2024-02-21T15:30:16;13.90;54.50
28845;DHT22;15976;47.938;7.758;2024-02-21T15:32:43;13.80;54.70
28845;DHT22;15976;47.938;7.758;2024-02-21T15:35:11;13.70;55.10
28845;DHT22;15976;47.938;7.758;2024-02-21T15:37:39;13.70;55.60
28845;DHT22;15976;47.938;7.758;2024-02-21T15:40:06;13.60;54.30
28845;DHT22;15976;47.938;7.758;2024-02-21T15:42:35;13.50;54.40
28845;DHT22;15976;47.938;7.758;2024-02-21T15:45:04;13.50;54.70
28845;DHT22;15976;47.938;7.758;2024-02-21T15:47:32;13.50;54.80
28845;DHT22;15976;47.938;7.758;2024-02-21T15:49:59;13.40;55.10